createdAt,value
2018-04-23T00:00:55.565Z,99.90
2018-04-23T00:01:58.921Z,99.90
2018-04-23T00:03:02.272Z,99.90
2018-04-23T00:04:05.626Z,99.90
2018-04-23T00:05:08.981Z,99.90
2018-04-23T00:06:12.387Z,99.90
2018-04-23T00:07:15.734Z,99.90
2018-04-23T00:08:19.075Z,99.90
2018-04-23T00:09:22.460Z,99.90
2018-04-23T00:10:26.594Z,99.90
2018-04-23T00:11:29.970Z,99.90
2018-04-23T00:12:33.298Z,99.90
2018-04-23T00:13:36.604Z,99.90
2018-04-23T00:14:39.934Z,99.90
2018-04-23T00:15:43.371Z,99.90
2018-04-23T00:16:46.748Z,99.90
2018-04-23T00:17:51.059Z,99.90
2018-04-23T00:18:55.202Z,99.90
2018-04-23T00:19:58.606Z,99.90
2018-04-23T00:21:02.018Z,99.80
2018-04-23T00:22:05.432Z,99.90
2018-04-23T00:23:09.077Z,99.90
2018-04-23T00:24:12.450Z,99.90
2018-04-23T00:25:15.894Z,99.90
2018-04-23T00:26:19.293Z,99.90
2018-04-23T00:27:22.673Z,99.90
2018-04-23T00:28:26.779Z,99.90
2018-04-23T00:29:30.235Z,99.90
2018-04-23T00:30:33.831Z,99.90
2018-04-23T00:31:37.234Z,99.90
2018-04-23T00:32:40.687Z,99.90
2018-04-23T00:33:44.048Z,99.90
2018-04-23T00:34:47.397Z,99.90
2018-04-23T00:35:50.722Z,99.90
2018-04-23T00:36:54.027Z,99.90
2018-04-23T00:37:57.447Z,99.90
2018-04-23T00:39:00.802Z,99.90
2018-04-23T00:40:04.413Z,99.90
2018-04-23T00:41:08.558Z,99.90
2018-04-23T00:42:11.921Z,99.90
2018-04-23T00:43:15.280Z,99.90
2018-04-23T00:44:18.654Z,99.90
2018-04-23T00:45:22.088Z,99.90
2018-04-23T00:46:25.444Z,99.90
2018-04-23T00:47:28.831Z,99.90
2018-04-23T00:48:32.190Z,99.90
2018-04-23T00:49:35.573Z,99.90
2018-04-23T00:50:38.988Z,99.90
2018-04-23T00:51:42.392Z,99.90
2018-04-23T00:52:45.837Z,99.90
2018-04-23T00:53:49.252Z,99.90
2018-04-23T00:54:52.648Z,99.90
2018-04-23T00:55:56.026Z,99.90
2018-04-23T00:57:00.097Z,99.90
2018-04-23T00:58:03.443Z,99.90
2018-04-23T00:59:06.889Z,99.90
2018-04-23T01:00:10.433Z,99.90
2018-04-23T01:01:14.620Z,99.90
2018-04-23T01:02:17.970Z,99.90
2018-04-23T01:03:21.402Z,99.90
2018-04-23T01:04:25.548Z,99.90
2018-04-23T01:05:28.899Z,99.90
2018-04-23T01:06:33.067Z,99.90
2018-04-23T01:07:36.451Z,99.90
2018-04-23T01:08:39.785Z,99.90
2018-04-23T01:09:43.161Z,99.90
2018-04-23T01:10:47.252Z,99.90
2018-04-23T01:11:50.685Z,99.90
2018-04-23T01:12:54.147Z,99.90
2018-04-23T01:13:58.276Z,99.90
2018-04-23T01:15:01.626Z,99.90
2018-04-23T01:16:04.966Z,99.90
2018-04-23T01:17:08.297Z,99.90
2018-04-23T01:18:11.736Z,99.90
2018-04-23T01:19:15.126Z,99.90
2018-04-23T01:20:18.558Z,99.90
2018-04-23T01:21:21.880Z,99.90
2018-04-23T01:22:25.215Z,99.90
2018-04-23T01:23:28.585Z,99.90
2018-04-23T01:24:31.927Z,99.90
2018-04-23T01:25:35.271Z,99.90
2018-04-23T01:26:38.654Z,99.90
2018-04-23T01:27:41.994Z,99.90
2018-04-23T01:28:45.383Z,99.90
2018-04-23T01:29:48.695Z,99.90
2018-04-23T01:30:52.018Z,99.90
2018-04-23T01:31:55.365Z,99.90
2018-04-23T01:32:59.174Z,99.90
2018-04-23T01:34:02.532Z,99.90
2018-04-23T01:35:05.952Z,99.90
2018-04-23T01:36:09.418Z,99.90
2018-04-23T01:37:12.783Z,99.90
2018-04-23T01:38:16.181Z,99.90
2018-04-23T01:39:23.490Z,99.90
2018-04-23T01:40:27.676Z,99.90
2018-04-23T01:41:31.024Z,99.90
2018-04-23T01:42:34.388Z,99.90
2018-04-23T01:43:37.762Z,99.90
2018-04-23T01:44:41.897Z,99.90
2018-04-23T01:45:45.290Z,99.90
2018-04-23T01:46:48.671Z,99.90
2018-04-23T01:47:51.999Z,99.90
2018-04-23T01:48:55.329Z,99.90
2018-04-23T01:49:58.680Z,99.90
2018-04-23T01:51:02.051Z,99.90
2018-04-23T01:52:05.440Z,99.90
2018-04-23T01:53:08.755Z,99.90
2018-04-23T01:54:12.132Z,99.90
2018-04-23T01:55:15.443Z,99.90
2018-04-23T01:56:18.796Z,99.90
2018-04-23T01:57:22.149Z,99.90
2018-04-23T01:58:25.452Z,99.90
2018-04-23T01:59:28.778Z,99.90
2018-04-23T02:00:32.107Z,99.90
2018-04-23T02:01:36.795Z,99.90
2018-04-23T02:02:40.136Z,99.90
2018-04-23T02:03:44.223Z,99.90
2018-04-23T02:04:47.531Z,99.90
2018-04-23T02:05:51.613Z,99.90
2018-04-23T02:06:54.957Z,99.90
2018-04-23T02:07:58.442Z,99.90
2018-04-23T02:09:01.812Z,99.90
2018-04-23T02:10:05.100Z,99.90
2018-04-23T02:11:08.545Z,99.90
2018-04-23T02:12:12.718Z,99.90
2018-04-23T02:13:16.120Z,99.90
2018-04-23T02:14:19.475Z,99.90
2018-04-23T02:15:22.810Z,99.90
2018-04-23T02:16:26.179Z,99.90
2018-04-23T02:17:29.546Z,99.90
2018-04-23T02:18:32.874Z,99.90
2018-04-23T02:19:36.236Z,99.90
2018-04-23T02:20:39.555Z,99.90
2018-04-23T02:21:43.648Z,99.90
2018-04-23T02:22:47.735Z,99.90
2018-04-23T02:23:51.095Z,99.90
2018-04-23T02:24:54.453Z,99.90
2018-04-23T02:25:57.799Z,99.90
2018-04-23T02:27:01.131Z,99.90
2018-04-23T02:28:04.459Z,99.90
2018-04-23T02:29:07.852Z,99.90
2018-04-23T02:30:11.976Z,99.90
2018-04-23T02:31:16.978Z,99.90
2018-04-23T02:32:20.307Z,99.90
2018-04-23T02:33:23.619Z,99.90
2018-04-23T02:34:26.971Z,99.90
2018-04-23T02:35:30.286Z,99.90
2018-04-23T02:36:33.639Z,99.90
2018-04-23T02:37:36.960Z,99.90
2018-04-23T02:38:40.298Z,99.90
2018-04-23T02:39:43.674Z,99.90
2018-04-23T02:40:47.020Z,99.90
2018-04-23T02:41:50.319Z,99.90
2018-04-23T02:42:53.708Z,99.90
2018-04-23T02:43:57.043Z,99.90
2018-04-23T02:45:00.407Z,99.90
2018-04-23T02:46:04.514Z,99.90
2018-04-23T02:47:08.609Z,99.90
2018-04-23T02:48:11.936Z,99.90
2018-04-23T02:49:15.355Z,99.90
2018-04-23T02:50:18.759Z,99.90
2018-04-23T02:51:22.853Z,99.90
2018-04-23T02:52:26.236Z,99.90
2018-04-23T02:53:29.592Z,99.90
2018-04-23T02:54:32.923Z,99.90
2018-04-23T02:55:37.164Z,99.90
2018-04-23T02:56:40.557Z,99.90
2018-04-23T02:57:43.911Z,99.90
2018-04-23T02:58:47.248Z,99.90
2018-04-23T02:59:50.602Z,99.90
2018-04-23T03:00:53.949Z,99.90
2018-04-23T03:01:57.406Z,99.90
2018-04-23T03:03:00.729Z,99.90
2018-04-23T03:04:04.818Z,99.90
2018-04-23T03:05:08.185Z,99.90
2018-04-23T03:06:11.544Z,99.90
2018-04-23T03:07:14.896Z,99.90
2018-04-23T03:08:18.266Z,99.90
2018-04-23T03:09:21.609Z,99.90
2018-04-23T03:10:24.921Z,99.90
2018-04-23T03:11:28.332Z,99.90
2018-04-23T03:12:31.678Z,99.90
2018-04-23T03:13:35.010Z,99.90
2018-04-23T03:14:39.118Z,99.90
2018-04-23T03:15:43.189Z,99.90
2018-04-23T03:16:46.661Z,99.90
2018-04-23T03:17:50.028Z,99.90
2018-04-23T03:18:53.445Z,99.90
2018-04-23T03:19:56.760Z,99.90
2018-04-23T03:21:00.951Z,99.90
2018-04-23T03:22:04.357Z,99.90
2018-04-23T03:23:08.492Z,99.90
2018-04-23T03:24:11.801Z,99.90
2018-04-23T03:25:15.137Z,99.90
2018-04-23T03:26:18.483Z,99.90
2018-04-23T03:27:21.848Z,99.90
2018-04-23T03:28:25.291Z,99.90
2018-04-23T03:29:28.764Z,99.90
2018-04-23T03:30:32.102Z,99.90
2018-04-23T03:31:35.449Z,99.90
2018-04-23T03:32:38.791Z,99.90
2018-04-23T03:33:42.126Z,99.90
2018-04-23T03:34:45.463Z,99.90
2018-04-23T03:35:48.836Z,99.90
2018-04-23T03:36:52.811Z,99.90
2018-04-23T03:37:56.157Z,99.90
2018-04-23T03:38:59.468Z,99.90
2018-04-23T03:40:02.804Z,99.90
2018-04-23T03:41:06.247Z,99.90
2018-04-23T03:42:09.565Z,99.90
2018-04-23T03:43:12.897Z,99.90
2018-04-23T03:44:17.014Z,99.90
2018-04-23T03:45:20.433Z,99.90
2018-04-23T03:46:23.737Z,99.90
2018-04-23T03:47:27.053Z,99.90
2018-04-23T03:48:31.217Z,99.90
2018-04-23T03:49:34.616Z,99.90
2018-04-23T03:50:37.978Z,99.90
2018-04-23T03:51:41.323Z,99.90
2018-04-23T03:52:45.416Z,99.90
2018-04-23T03:53:49.616Z,99.90
2018-04-23T03:54:52.919Z,99.90
2018-04-23T03:55:56.278Z,99.90
2018-04-23T03:56:59.608Z,99.90
2018-04-23T03:58:02.938Z,99.90
2018-04-23T03:59:06.253Z,99.90
2018-04-23T04:00:09.835Z,99.90
2018-04-23T04:01:14.146Z,99.90
2018-04-23T04:02:18.259Z,99.90
2018-04-23T04:03:22.403Z,99.90
2018-04-23T04:04:25.803Z,99.90
2018-04-23T04:05:29.137Z,99.90
2018-04-23T04:06:32.543Z,99.90
2018-04-23T04:07:35.927Z,99.90
2018-04-23T04:08:39.234Z,99.90
2018-04-23T04:09:42.671Z,99.90
2018-04-23T04:10:46.730Z,99.90
2018-04-23T04:11:50.033Z,99.90
2018-04-23T04:13:11.016Z,99.90
2018-04-23T04:14:31.931Z,99.90
2018-04-23T04:15:52.709Z,99.90
2018-04-23T04:17:00.918Z,99.90
2018-04-23T04:18:39.750Z,99.90
2018-04-23T04:19:43.053Z,99.90
2018-04-23T04:20:46.439Z,99.90
2018-04-23T04:21:50.633Z,99.90
2018-04-23T04:22:54.833Z,99.90
2018-04-23T04:23:58.963Z,99.90
2018-04-23T04:25:02.368Z,99.90
2018-04-23T04:26:05.710Z,99.90
2018-04-23T04:27:09.873Z,99.90
2018-04-23T04:28:13.283Z,99.90
2018-04-23T04:29:16.648Z,99.90
2018-04-23T04:30:20.201Z,99.90
2018-04-23T04:31:23.556Z,99.90
2018-04-23T04:32:26.958Z,99.90
2018-04-23T04:33:30.287Z,99.90
2018-04-23T04:34:33.623Z,99.90
2018-04-23T04:35:37.022Z,99.90
2018-04-23T04:36:40.374Z,99.90
2018-04-23T04:37:43.753Z,99.90
2018-04-23T04:38:47.124Z,99.90
2018-04-23T04:39:50.448Z,99.90
2018-04-23T04:40:53.774Z,99.90
2018-04-23T04:41:57.113Z,99.90
2018-04-23T04:43:00.492Z,99.90
2018-04-23T04:44:03.985Z,99.90
2018-04-23T04:45:07.366Z,99.90
2018-04-23T04:46:10.709Z,99.90
2018-04-23T04:47:14.138Z,99.90
2018-04-23T04:48:17.557Z,99.90
2018-04-23T04:49:20.965Z,99.90
2018-04-23T04:50:24.402Z,99.90
2018-04-23T04:51:28.847Z,99.90
2018-04-23T04:52:32.316Z,99.90
2018-04-23T04:53:35.667Z,99.90
2018-04-23T04:54:39.023Z,99.90
2018-04-23T04:55:42.411Z,99.90
2018-04-23T04:56:45.791Z,99.90
2018-04-23T04:57:49.192Z,99.90
2018-04-23T04:58:54.020Z,99.90
2018-04-23T04:59:57.377Z,99.90
2018-04-23T05:01:00.844Z,99.90
2018-04-23T05:02:05.083Z,99.90
2018-04-23T05:03:08.468Z,99.90
2018-04-23T05:04:11.824Z,99.90
2018-04-23T05:05:15.285Z,99.90
2018-04-23T05:06:18.778Z,99.90
2018-04-23T05:07:22.164Z,99.90
2018-04-23T05:08:25.572Z,99.90
2018-04-23T05:09:29.664Z,99.90
2018-04-23T05:10:32.992Z,99.90
2018-04-23T05:11:36.660Z,99.90
2018-04-23T05:12:40.074Z,99.90
2018-04-23T05:13:43.463Z,99.90
2018-04-23T05:14:46.852Z,99.90
2018-04-23T05:15:50.341Z,99.90
2018-04-23T05:16:53.672Z,99.90
2018-04-23T05:17:57.780Z,99.90
2018-04-23T05:19:01.164Z,99.90
2018-04-23T05:20:04.772Z,99.90
2018-04-23T05:21:08.130Z,99.90
2018-04-23T05:23:12.876Z,99.90
2018-04-23T05:24:16.958Z,99.90
2018-04-23T05:25:20.343Z,99.90
2018-04-23T05:26:23.653Z,99.90
2018-04-23T05:27:27.032Z,99.90
2018-04-23T05:28:31.179Z,99.90
2018-04-23T05:29:34.526Z,99.90
2018-04-23T05:30:38.627Z,99.90
2018-04-23T05:31:41.981Z,99.90
2018-04-23T05:32:45.386Z,99.90
2018-04-23T05:33:49.585Z,99.90
2018-04-23T05:34:53.775Z,99.90
2018-04-23T05:35:57.153Z,99.90
2018-04-23T05:37:00.457Z,99.90
2018-04-23T05:38:03.850Z,99.90
2018-04-23T05:39:07.227Z,99.90
2018-04-23T05:40:10.593Z,99.90
2018-04-23T05:41:13.911Z,99.90
2018-04-23T05:42:17.226Z,99.90
2018-04-23T05:43:20.541Z,99.90
2018-04-23T05:44:23.858Z,99.90
2018-04-23T05:45:27.940Z,99.90
2018-04-23T05:46:31.314Z,99.90
2018-04-23T05:47:34.668Z,99.90
2018-04-23T05:48:38.028Z,99.90
2018-04-23T05:49:41.343Z,99.90
2018-04-23T05:50:44.689Z,99.90
2018-04-23T05:51:49.116Z,99.90
2018-04-23T05:52:52.471Z,99.90
2018-04-23T05:53:55.794Z,99.90
2018-04-23T05:54:59.163Z,99.90
2018-04-23T05:56:02.478Z,99.90
2018-04-23T05:57:05.827Z,99.90
2018-04-23T05:58:09.913Z,99.80
2018-04-23T05:59:13.274Z,99.80
2018-04-23T06:00:16.619Z,99.60
2018-04-23T06:01:19.948Z,99.10
2018-04-23T06:02:23.388Z,99.70
2018-04-23T06:03:26.700Z,98.90
2018-04-23T06:04:30.097Z,98.90
2018-04-23T06:05:33.406Z,98.80
2018-04-23T06:06:36.731Z,98.80
2018-04-23T06:07:40.901Z,98.00
2018-04-23T06:08:44.356Z,98.00
2018-04-23T06:09:47.656Z,97.50
2018-04-23T06:10:50.996Z,97.40
2018-04-23T06:11:54.320Z,96.80
2018-04-23T06:12:57.717Z,96.10
2018-04-23T06:14:01.131Z,95.90
2018-04-23T06:15:04.449Z,96.50
2018-04-23T06:16:07.815Z,96.00
2018-04-23T06:17:11.954Z,96.10
2018-04-23T06:18:15.413Z,96.20
2018-04-23T06:19:18.871Z,96.30
2018-04-23T06:20:22.219Z,95.30
2018-04-23T06:21:25.624Z,95.30
2018-04-23T06:22:28.936Z,95.20
2018-04-23T06:23:32.267Z,95.40
2018-04-23T06:24:35.601Z,95.70
2018-04-23T06:25:38.963Z,95.20
2018-04-23T06:26:42.280Z,95.30
2018-04-23T06:27:45.596Z,95.50
2018-04-23T06:28:48.912Z,95.50
2018-04-23T06:29:52.262Z,95.90
2018-04-23T06:30:55.589Z,95.50
2018-04-23T06:31:58.913Z,94.50
2018-04-23T06:33:02.262Z,94.40
2018-04-23T06:34:05.595Z,94.20
2018-04-23T06:35:08.993Z,94.30
2018-04-23T06:36:12.317Z,94.30
2018-04-23T06:37:15.635Z,94.20
2018-04-23T06:38:19.780Z,93.90
2018-04-23T06:39:23.984Z,93.70
2018-04-23T06:40:28.078Z,93.80
2018-04-23T06:41:31.401Z,93.80
2018-04-23T06:42:34.706Z,93.60
2018-04-23T06:43:38.033Z,93.20
2018-04-23T06:44:41.511Z,92.90
2018-04-23T06:45:44.843Z,92.70
2018-04-23T06:46:48.189Z,92.80
2018-04-23T06:47:51.689Z,92.90
2018-04-23T06:48:55.019Z,92.70
2018-04-23T06:49:59.176Z,92.30
2018-04-23T06:51:02.528Z,92.30
2018-04-23T06:52:05.889Z,92.60
2018-04-23T06:53:09.217Z,92.40
2018-04-23T06:54:12.531Z,92.80
2018-04-23T06:55:15.863Z,92.90
2018-04-23T06:56:19.946Z,92.80
2018-04-23T06:57:23.241Z,92.80
2018-04-23T06:58:26.548Z,92.40
2018-04-23T06:59:29.862Z,92.70
2018-04-23T07:00:33.224Z,92.10
2018-04-23T07:01:36.535Z,91.90
2018-04-23T07:02:39.839Z,92.20
2018-04-23T07:03:43.168Z,92.30
2018-04-23T07:04:47.245Z,92.00
2018-04-23T07:05:51.480Z,92.30
2018-04-23T07:06:54.815Z,92.30
2018-04-23T07:07:58.124Z,92.50
2018-04-23T07:09:01.420Z,92.60
2018-04-23T07:10:05.508Z,92.70
2018-04-23T07:11:09.621Z,92.60
2018-04-23T07:12:13.722Z,92.60
2018-04-23T07:13:17.836Z,93.20
2018-04-23T07:14:21.953Z,93.20
2018-04-23T07:15:25.307Z,93.20
2018-04-23T07:16:28.647Z,93.30
2018-04-23T07:17:31.966Z,93.50
2018-04-23T07:18:35.285Z,93.20
2018-04-23T07:19:38.619Z,93.20
2018-04-23T07:20:41.940Z,92.90
2018-04-23T07:21:45.259Z,92.90
2018-04-23T07:22:48.571Z,92.70
2018-04-23T07:23:51.876Z,92.70
2018-04-23T07:24:55.177Z,92.60
2018-04-23T07:25:59.266Z,91.80
2018-04-23T07:27:02.605Z,91.80
2018-04-23T07:28:05.916Z,91.90
2018-04-23T07:29:09.227Z,92.10
2018-04-23T07:30:12.584Z,92.40
2018-04-23T07:31:15.915Z,92.10
2018-04-23T07:32:19.252Z,92.10
2018-04-23T07:33:22.598Z,91.90
2018-04-23T07:34:25.910Z,91.70
2018-04-23T07:35:29.230Z,91.50
2018-04-23T07:36:32.559Z,90.50
2018-04-23T07:37:35.906Z,90.30
2018-04-23T07:38:39.196Z,90.20
2018-04-23T07:39:42.519Z,90.30
2018-04-23T07:40:45.846Z,90.50
2018-04-23T07:41:49.164Z,90.80
2018-04-23T07:42:53.302Z,91.00
2018-04-23T07:43:56.614Z,91.00
2018-04-23T07:45:00.024Z,90.90
2018-04-23T07:46:03.359Z,90.90
2018-04-23T07:47:06.718Z,91.00
2018-04-23T07:48:10.802Z,90.80
2018-04-23T07:49:14.118Z,90.80
2018-04-23T07:50:17.440Z,90.90
2018-04-23T07:51:20.791Z,91.10
2018-04-23T07:52:24.114Z,90.80
2018-04-23T07:53:27.468Z,90.70
2018-04-23T07:54:30.833Z,90.60
2018-04-23T07:55:34.137Z,90.50
2018-04-23T07:56:37.473Z,90.90
2018-04-23T07:57:40.813Z,91.10
2018-04-23T07:58:44.162Z,90.80
2018-04-23T07:59:48.255Z,90.20
2018-04-23T08:00:52.377Z,90.20
2018-04-23T08:01:55.707Z,90.20
2018-04-23T08:02:59.066Z,90.20
2018-04-23T08:04:02.392Z,90.50
2018-04-23T08:05:06.590Z,91.00
2018-04-23T08:06:09.911Z,90.70
2018-04-23T08:07:14.054Z,90.60
2018-04-23T08:08:17.403Z,90.60
2018-04-23T08:09:21.524Z,90.50
2018-04-23T08:10:24.851Z,90.60
2018-04-23T08:11:28.190Z,90.20
2018-04-23T08:12:48.258Z,89.30
2018-04-23T08:13:51.611Z,89.50
2018-04-23T08:14:54.954Z,89.70
2018-04-23T08:15:58.294Z,89.40
2018-04-23T08:17:01.713Z,89.70
2018-04-23T08:18:05.065Z,90.00
2018-04-23T08:19:08.381Z,90.00
2018-04-23T08:20:11.731Z,90.20
2018-04-23T08:21:15.047Z,90.20
2018-04-23T08:22:18.425Z,87.90
2018-04-23T08:23:21.787Z,86.40
2018-04-23T08:24:25.127Z,86.40
2018-04-23T08:25:28.472Z,86.80
2018-04-23T08:26:31.825Z,85.40
2018-04-23T08:27:35.147Z,85.40
2018-04-23T08:28:39.251Z,84.50
2018-04-23T08:29:42.588Z,84.10
2018-04-23T08:30:45.906Z,83.40
2018-04-23T08:31:49.241Z,83.20
2018-04-23T08:32:57.512Z,84.20
2018-04-23T08:34:01.715Z,84.90
2018-04-23T08:35:05.112Z,85.00
2018-04-23T08:36:08.539Z,86.30
2018-04-23T08:37:11.888Z,86.70
2018-04-23T08:38:15.227Z,87.40
2018-04-23T08:39:18.615Z,87.40
2018-04-23T08:40:21.935Z,86.80
2018-04-23T08:41:25.348Z,85.80
2018-04-23T08:42:28.760Z,84.50
2018-04-23T08:43:32.121Z,85.10
2018-04-23T08:44:35.479Z,84.70
2018-04-23T08:45:38.889Z,84.30
2018-04-23T08:46:43.479Z,83.90
2018-04-23T08:47:47.558Z,83.10
2018-04-23T08:48:50.895Z,83.20
2018-04-23T08:49:54.197Z,83.50
2018-04-23T08:50:57.500Z,84.30
2018-04-23T08:52:00.856Z,84.80
2018-04-23T08:53:04.187Z,84.00
2018-04-23T08:54:08.288Z,84.50
2018-04-23T08:55:11.620Z,84.50
2018-04-23T08:56:14.982Z,85.10
2018-04-23T08:57:19.091Z,84.00
2018-04-23T08:58:22.417Z,84.00
2018-04-23T08:59:25.756Z,84.00
2018-04-23T09:00:29.847Z,84.00
2018-04-23T09:01:33.985Z,84.70
2018-04-23T09:02:37.323Z,84.70
2018-04-23T09:03:40.674Z,83.90
2018-04-23T09:04:44.025Z,83.90
2018-04-23T09:05:47.343Z,83.40
2018-04-23T09:06:50.647Z,82.40
2018-04-23T09:07:54.001Z,81.50
2018-04-23T09:08:57.333Z,81.40
2018-04-23T09:10:01.436Z,81.00
2018-04-23T09:11:04.730Z,80.90
2018-04-23T09:12:08.046Z,81.20
2018-04-23T09:13:11.362Z,81.10
2018-04-23T09:14:14.742Z,82.00
2018-04-23T09:15:18.077Z,80.10
2018-04-23T09:16:22.174Z,80.30
2018-04-23T09:17:26.275Z,79.00
2018-04-23T09:18:30.374Z,80.20
2018-04-23T09:19:33.671Z,80.30
2018-04-23T09:20:37.769Z,82.20
2018-04-23T09:21:41.883Z,81.30
2018-04-23T09:22:45.222Z,81.30
2018-04-23T09:23:48.618Z,80.80
2018-04-23T09:24:52.487Z,80.20
2018-04-23T09:25:55.795Z,79.30
2018-04-23T09:26:59.091Z,80.40
2018-04-23T09:28:02.424Z,78.60
2018-04-23T09:29:05.768Z,77.50
2018-04-23T09:30:09.108Z,77.20
2018-04-23T09:31:12.409Z,77.40
2018-04-23T09:32:15.718Z,76.80
2018-04-23T09:33:19.076Z,76.80
2018-04-23T09:34:22.412Z,76.80
2018-04-23T09:35:25.735Z,77.50
2018-04-23T09:36:29.041Z,77.80
2018-04-23T09:37:32.374Z,77.30
2018-04-23T09:38:35.691Z,78.20
2018-04-23T09:39:39.013Z,79.00
2018-04-23T09:40:42.368Z,78.00
2018-04-23T09:41:45.724Z,78.60
2018-04-23T09:42:49.019Z,77.60
2018-04-23T09:43:52.337Z,77.10
2018-04-23T09:44:55.760Z,77.40
2018-04-23T09:45:59.067Z,77.80
2018-04-23T09:47:02.488Z,77.10
2018-04-23T09:48:06.631Z,76.90
2018-04-23T09:49:10.766Z,77.30
2018-04-23T09:50:14.141Z,77.20
2018-04-23T09:51:17.484Z,77.20
2018-04-23T09:52:20.861Z,77.10
2018-04-23T09:53:24.190Z,77.90
2018-04-23T09:54:27.539Z,78.60
2018-04-23T09:55:30.912Z,78.90
2018-04-23T09:56:34.257Z,79.40
2018-04-23T09:57:37.590Z,79.50
2018-04-23T09:58:40.930Z,80.20
2018-04-23T09:59:44.259Z,80.40
2018-04-23T10:00:47.658Z,80.80
2018-04-23T10:01:51.007Z,81.70
2018-04-23T10:02:54.349Z,81.30
2018-04-23T10:04:03.961Z,81.40
2018-04-23T10:05:07.280Z,81.50
2018-04-23T10:06:10.656Z,82.10
2018-04-23T10:07:14.762Z,81.60
2018-04-23T10:08:18.865Z,81.80
2018-04-23T10:09:22.167Z,81.80
2018-04-23T10:10:25.496Z,81.60
2018-04-23T10:11:28.815Z,80.40
2018-04-23T10:12:32.928Z,80.50
2018-04-23T10:13:36.254Z,80.50
2018-04-23T10:14:39.591Z,80.20
2018-04-23T10:15:43.711Z,79.70
2018-04-23T10:16:47.122Z,79.80
2018-04-23T10:17:50.451Z,78.80
2018-04-23T10:18:54.545Z,78.70
2018-04-23T10:19:57.841Z,78.70
2018-04-23T10:21:01.957Z,77.60
2018-04-23T10:22:05.264Z,77.50
2018-04-23T10:23:08.579Z,77.70
2018-04-23T10:24:11.908Z,76.50
2018-04-23T10:25:15.247Z,75.30
2018-04-23T10:26:18.595Z,74.40
2018-04-23T10:27:21.961Z,74.70
2018-04-23T10:28:26.045Z,75.10
2018-04-23T10:29:29.371Z,75.80
2018-04-23T10:30:32.731Z,73.90
2018-04-23T10:31:36.839Z,73.10
2018-04-23T10:32:40.215Z,73.10
2018-04-23T10:33:44.326Z,72.30
2018-04-23T10:34:48.442Z,71.50
2018-04-23T10:35:51.780Z,71.60
2018-04-23T10:36:59.126Z,71.00
2018-04-23T10:38:02.504Z,72.20
2018-04-23T10:39:07.719Z,72.70
2018-04-23T10:40:11.065Z,72.30
2018-04-23T10:41:14.472Z,72.70
2018-04-23T10:42:17.784Z,72.50
2018-04-23T10:43:21.126Z,72.80
2018-04-23T10:44:24.442Z,73.80
2018-04-23T10:45:28.622Z,72.50
2018-04-23T10:46:31.931Z,72.60
2018-04-23T10:47:35.998Z,72.00
2018-04-23T10:48:39.319Z,72.00
2018-04-23T10:49:43.406Z,71.30
2018-04-23T10:50:47.508Z,71.30
2018-04-23T10:51:51.591Z,69.20
2018-04-23T10:52:54.929Z,69.20
2018-04-23T10:53:58.251Z,68.80
2018-04-23T10:55:01.562Z,67.70
2018-04-23T10:56:05.644Z,70.00
2018-04-23T10:57:08.971Z,70.00
2018-04-23T10:58:13.047Z,70.50
2018-04-23T10:59:16.371Z,70.50
2018-04-23T11:00:19.715Z,70.30
2018-04-23T11:01:23.530Z,70.20
2018-04-23T11:02:26.865Z,69.30
2018-04-23T11:03:30.187Z,69.60
2018-04-23T11:04:33.839Z,69.70
2018-04-23T11:05:37.221Z,69.60
2018-04-23T11:06:40.566Z,69.30
2018-04-23T11:07:44.667Z,69.40
2018-04-23T11:08:48.751Z,69.20
2018-04-23T11:09:52.071Z,69.30
2018-04-23T11:10:55.408Z,69.80
2018-04-23T11:11:58.799Z,69.20
2018-04-23T11:13:02.931Z,68.70
2018-04-23T11:14:06.263Z,68.70
2018-04-23T11:15:09.675Z,67.60
2018-04-23T11:16:12.991Z,67.40
2018-04-23T11:17:16.312Z,67.60
2018-04-23T11:18:19.636Z,67.90
2018-04-23T11:19:22.943Z,66.80
2018-04-23T11:20:26.292Z,66.70
2018-04-23T11:21:29.666Z,66.00
2018-04-23T11:22:33.047Z,67.60
2018-04-23T11:23:36.369Z,68.00
2018-04-23T11:24:39.683Z,66.80
2018-04-23T11:25:43.021Z,66.20
2018-04-23T11:26:46.322Z,66.30
2018-04-23T11:27:49.657Z,66.30
2018-04-23T11:28:53.004Z,66.50
2018-04-23T11:29:57.119Z,64.50
2018-04-23T11:31:00.461Z,64.50
2018-04-23T11:32:03.915Z,65.00
2018-04-23T11:33:07.276Z,62.50
2018-04-23T11:34:10.578Z,61.60
2018-04-23T11:35:13.931Z,62.70
2018-04-23T11:36:17.269Z,62.40
2018-04-23T11:37:20.619Z,62.60
2018-04-23T11:38:23.968Z,63.10
2018-04-23T11:39:27.341Z,63.60
2018-04-23T11:40:31.314Z,62.70
2018-04-23T11:41:34.701Z,63.40
2018-04-23T11:42:38.115Z,63.90
2018-04-23T11:43:41.474Z,64.50
2018-04-23T11:44:44.775Z,65.20
2018-04-23T11:45:48.304Z,65.20
2018-04-23T11:46:51.471Z,65.80
2018-04-23T11:47:54.792Z,66.60
2018-04-23T11:48:58.135Z,65.30
2018-04-23T11:50:01.485Z,64.00
2018-04-23T11:51:04.801Z,63.40
2018-04-23T11:52:08.909Z,62.70
2018-04-23T11:53:12.223Z,62.70
2018-04-23T11:54:15.530Z,64.10
2018-04-23T11:55:18.852Z,64.30
2018-04-23T11:56:22.179Z,63.50
2018-04-23T11:57:25.546Z,61.70
2018-04-23T11:58:28.880Z,61.50
2018-04-23T11:59:32.209Z,60.80
2018-04-23T12:00:36.334Z,59.10
2018-04-23T12:01:40.392Z,59.00
2018-04-23T12:02:43.796Z,59.00
2018-04-23T12:03:47.111Z,59.20
2018-04-23T12:04:51.186Z,58.20
2018-04-23T12:05:54.634Z,58.20
2018-04-23T12:06:57.919Z,58.70
2018-04-23T12:08:01.314Z,59.50
2018-04-23T12:09:05.271Z,58.50
2018-04-23T12:10:08.573Z,59.00
2018-04-23T12:11:11.884Z,59.80
2018-04-23T12:12:15.179Z,59.00
2018-04-23T12:13:18.497Z,59.60
2018-04-23T12:14:22.575Z,58.30
2018-04-23T12:15:25.892Z,58.40
2018-04-23T12:16:29.179Z,57.90
2018-04-23T12:17:32.515Z,57.70
2018-04-23T12:18:35.879Z,57.20
2018-04-23T12:19:39.981Z,57.90
2018-04-23T12:20:43.308Z,57.80
2018-04-23T12:21:46.698Z,57.50
2018-04-23T12:22:50.072Z,56.90
2018-04-23T12:23:53.417Z,57.30
2018-04-23T12:24:56.793Z,57.20
2018-04-23T12:26:00.181Z,57.50
2018-04-23T12:27:04.279Z,59.10
2018-04-23T12:28:08.399Z,59.20
2018-04-23T12:29:11.736Z,59.20
2018-04-23T12:30:15.103Z,58.90
2018-04-23T12:31:18.477Z,59.00
2018-04-23T12:32:21.767Z,59.30
2018-04-23T12:33:25.164Z,59.40
2018-04-23T12:34:28.612Z,59.60
2018-04-23T12:35:32.202Z,59.90
2018-04-23T12:36:35.571Z,60.50
2018-04-23T12:37:38.932Z,60.50
2018-04-23T12:38:43.062Z,60.50
2018-04-23T12:39:46.466Z,60.10
2018-04-23T12:40:50.556Z,60.20
2018-04-23T12:41:54.662Z,60.30
2018-04-23T12:42:59.431Z,60.60
2018-04-23T12:44:02.773Z,60.50
2018-04-23T12:45:06.285Z,59.80
2018-04-23T12:46:09.712Z,59.80
2018-04-23T12:47:13.011Z,60.10
2018-04-23T12:48:16.336Z,60.60
2018-04-23T12:49:19.649Z,60.40
2018-04-23T12:50:23.015Z,61.00
2018-04-23T12:51:26.343Z,60.40
2018-04-23T12:52:29.707Z,61.30
2018-04-23T12:53:33.044Z,60.80
2018-04-23T12:54:36.467Z,60.40
2018-04-23T12:55:39.837Z,59.70
2018-04-23T12:56:43.163Z,59.90
2018-04-23T12:57:46.497Z,60.50
2018-04-23T12:58:49.911Z,59.00
2018-04-23T12:59:53.303Z,58.90
2018-04-23T13:00:56.726Z,59.40
2018-04-23T13:02:01.295Z,58.90
2018-04-23T13:03:04.673Z,58.30
2018-04-23T13:04:08.101Z,57.50
2018-04-23T13:05:11.437Z,57.50
2018-04-23T13:06:14.802Z,57.80
2018-04-23T13:07:18.129Z,58.20
2018-04-23T13:08:21.465Z,58.70
2018-04-23T13:09:24.812Z,58.60
2018-04-23T13:10:28.147Z,58.70
2018-04-23T13:11:31.629Z,58.70
2018-04-23T13:12:34.980Z,57.60
2018-04-23T13:13:38.332Z,57.20
2018-04-23T13:14:41.672Z,56.30
2018-04-23T13:15:45.789Z,55.80
2018-04-23T13:16:49.968Z,55.80
2018-04-23T13:17:54.135Z,56.30
2018-04-23T13:18:57.461Z,56.40
2018-04-23T13:20:00.774Z,56.30
2018-04-23T13:21:04.137Z,57.10
2018-04-23T13:22:08.295Z,56.50
2018-04-23T13:23:11.606Z,56.50
2018-04-23T13:24:14.934Z,56.40
2018-04-23T13:25:18.605Z,56.70
2018-04-23T13:26:22.662Z,57.80
2018-04-23T13:27:25.998Z,57.40
2018-04-23T13:28:29.337Z,56.80
2018-04-23T13:29:32.671Z,56.90
2018-04-23T13:30:36.767Z,55.90
2018-04-23T13:31:40.880Z,56.60
2018-04-23T13:32:45.043Z,57.00
2018-04-23T13:33:48.389Z,57.00
2018-04-23T13:34:51.724Z,57.70
2018-04-23T13:35:55.057Z,57.60
2018-04-23T13:36:58.409Z,58.00
2018-04-23T13:38:01.831Z,58.40
2018-04-23T13:39:08.024Z,58.30
2018-04-23T13:40:11.347Z,58.70
2018-04-23T13:41:14.683Z,58.30